KJXN/JXN METAR and TAF weather

Enter ICAO airport designator
Station Type Date Time Source
KJXN METAR 2020/01/29 12:56 UTC NOAA

KJXN 291256Z VRB03KT 10SM OVC023 M01/M05 A3017 RMK AO2 SLP229 T10111050


Station Type Date Time Source
KJXN Decoded METAR 2020/01/29 12:56 UTC NOAA

JACKSON COUNTY-REYNOLDS, MI, United States (KJXN) 42-16N 084-28W
Jan 29, 2020 - 07:56 AM EST / 2020.01.29 1256 UTC
Wind: Variable at 3 MPH (3 KT):0
Visibility: 10 mile(s):0
Sky conditions: overcast
Temperature: 30.0 F (-1.1 C)
Dew Point: 23.0 F (-5.0 C)
Relative Humidity: 74%
Pressure (altimeter): 30.17 in. Hg (1021 hPa)
ob: KJXN 291256Z VRB03KT 10SM OVC023 M01/M05 A3017 RMK AO2 SLP229 T10111050
cycle: 13

Station Type Date Time Source
KJXN TAF 2020/01/29 12:42 UTC NOAA

TAF KJXN 291140Z 2912/3012 VRB03KT P6SM OVC025

Example: see airport list